sensor_id;sensor_type;location;lat;lon;timestamp;P1;durP1;ratioP1;P2;durP2;ratioP2
11473;SDS011;5793;52.238;13.438;2022-10-20T00:00:54;9.20;;;3.87;;
11473;SDS011;5793;52.238;13.438;2022-10-20T00:03:25;6.57;;;4.53;;
11473;SDS011;5793;52.238;13.438;2022-10-20T00:05:54;5.93;;;4.70;;
11473;SDS011;5793;52.238;13.438;2022-10-20T00:08:31;4.67;;;4.10;;
11473;SDS011;5793;52.238;13.438;2022-10-20T00:11:00;4.57;;;3.87;;
11473;SDS011;5793;52.238;13.438;2022-10-20T00:13:28;4.83;;;3.90;;
11473;SDS011;5793;52.238;13.438;2022-10-20T00:15:56;5.77;;;4.07;;
11473;SDS011;5793;52.238;13.438;2022-10-20T00:18:26;6.60;;;4.30;;
11473;SDS011;5793;52.238;13.438;2022-10-20T00:20:54;5.00;;;4.23;;
11473;SDS011;5793;52.238;13.438;2022-10-20T00:23:22;9.07;;;4.60;;
11473;SDS011;5793;52.238;13.438;2022-10-20T00:25:58;5.27;;;3.90;;
11473;SDS011;5793;52.238;13.438;2022-10-20T00:28:28;4.10;;;3.70;;
11473;SDS011;5793;52.238;13.438;2022-10-20T00:30:56;5.53;;;3.73;;
11473;SDS011;5793;52.238;13.438;2022-10-20T00:33:24;4.30;;;3.83;;
11473;SDS011;5793;52.238;13.438;2022-10-20T00:35:53;8.33;;;3.93;;
11473;SDS011;5793;52.238;13.438;2022-10-20T00:38:20;4.43;;;3.80;;
11473;SDS011;5793;52.238;13.438;2022-10-20T00:40:48;4.13;;;3.23;;
11473;SDS011;5793;52.238;13.438;2022-10-20T00:43:17;8.20;;;4.23;;
11473;SDS011;5793;52.238;13.438;2022-10-20T00:45:49;7.00;;;4.00;;
11473;SDS011;5793;52.238;13.438;2022-10-20T00:48:19;5.70;;;3.87;;
11473;SDS011;5793;52.238;13.438;2022-10-20T00:50:49;7.53;;;4.53;;
11473;SDS011;5793;52.238;13.438;2022-10-20T00:53:20;6.93;;;4.63;;
11473;SDS011;5793;52.238;13.438;2022-10-20T00:55:50;5.33;;;4.53;;
11473;SDS011;5793;52.238;13.438;2022-10-20T00:58:21;6.27;;;4.90;;
11473;SDS011;5793;52.238;13.438;2022-10-20T01:00:50;8.33;;;4.10;;
11473;SDS011;5793;52.238;13.438;2022-10-20T01:03:22;4.77;;;4.27;;
11473;SDS011;5793;52.238;13.438;2022-10-20T01:05:54;6.53;;;3.80;;
11473;SDS011;5793;52.238;13.438;2022-10-20T01:08:21;9.73;;;4.23;;
11473;SDS011;5793;52.238;13.438;2022-10-20T01:10:50;6.27;;;4.00;;
11473;SDS011;5793;52.238;13.438;2022-10-20T01:13:29;8.60;;;4.83;;
11473;SDS011;5793;52.238;13.438;2022-10-20T01:16:07;8.10;;;4.57;;
11473;SDS011;5793;52.238;13.438;2022-10-20T01:18:45;9.60;;;3.90;;
11473;SDS011;5793;52.238;13.438;2022-10-20T01:21:36;6.83;;;4.57;;
11473;SDS011;5793;52.238;13.438;2022-10-20T01:24:21;7.07;;;3.93;;
11473;SDS011;5793;52.238;13.438;2022-10-20T01:27:28;5.37;;;3.53;;
11473;SDS011;5793;52.238;13.438;2022-10-20T01:30:06;6.40;;;3.80;;
11473;SDS011;5793;52.238;13.438;2022-10-20T01:32:40;5.63;;;3.60;;
11473;SDS011;5793;52.238;13.438;2022-10-20T01:35:20;7.47;;;3.67;;
11473;SDS011;5793;52.238;13.438;2022-10-20T01:37:56;4.33;;;3.57;;
11473;SDS011;5793;52.238;13.438;2022-10-20T01:40:33;3.93;;;3.47;;
11473;SDS011;5793;52.238;13.438;2022-10-20T01:43:09;5.17;;;3.63;;
11473;SDS011;5793;52.238;13.438;2022-10-20T01:45:40;5.20;;;3.30;;
11473;SDS011;5793;52.238;13.438;2022-10-20T01:48:11;4.93;;;3.70;;
11473;SDS011;5793;52.238;13.438;2022-10-20T01:50:40;10.00;;;3.57;;
11473;SDS011;5793;52.238;13.438;2022-10-20T01:53:08;8.17;;;3.60;;
11473;SDS011;5793;52.238;13.438;2022-10-20T01:55:36;6.00;;;3.33;;
11473;SDS011;5793;52.238;13.438;2022-10-20T01:58:11;5.23;;;3.30;;
11473;SDS011;5793;52.238;13.438;2022-10-20T02:00:49;4.80;;;3.30;;
11473;SDS011;5793;52.238;13.438;2022-10-20T02:03:29;6.10;;;3.30;;
11473;SDS011;5793;52.238;13.438;2022-10-20T02:06:07;3.70;;;3.40;;
11473;SDS011;5793;52.238;13.438;2022-10-20T02:08:45;5.43;;;3.00;;
11473;SDS011;5793;52.238;13.438;2022-10-20T02:11:18;4.60;;;3.40;;
11473;SDS011;5793;52.238;13.438;2022-10-20T02:13:51;6.80;;;3.90;;
11473;SDS011;5793;52.238;13.438;2022-10-20T02:16:23;4.40;;;3.27;;
11473;SDS011;5793;52.238;13.438;2022-10-20T02:18:54;3.97;;;2.80;;
11473;SDS011;5793;52.238;13.438;2022-10-20T02:21:29;5.27;;;3.40;;
11473;SDS011;5793;52.238;13.438;2022-10-20T02:23:57;5.03;;;3.00;;
11473;SDS011;5793;52.238;13.438;2022-10-20T02:26:29;5.07;;;3.67;;
11473;SDS011;5793;52.238;13.438;2022-10-20T02:29:02;5.77;;;3.33;;
11473;SDS011;5793;52.238;13.438;2022-10-20T02:31:35;5.60;;;3.57;;
11473;SDS011;5793;52.238;13.438;2022-10-20T02:34:03;4.27;;;3.17;;
11473;SDS011;5793;52.238;13.438;2022-10-20T02:36:35;4.60;;;3.50;;
11473;SDS011;5793;52.238;13.438;2022-10-20T02:39:04;6.67;;;3.30;;
11473;SDS011;5793;52.238;13.438;2022-10-20T02:41:32;5.47;;;3.80;;
11473;SDS011;5793;52.238;13.438;2022-10-20T02:44:02;5.13;;;3.50;;
11473;SDS011;5793;52.238;13.438;2022-10-20T02:46:30;4.37;;;3.50;;
11473;SDS011;5793;52.238;13.438;2022-10-20T02:48:57;6.00;;;3.63;;
11473;SDS011;5793;52.238;13.438;2022-10-20T02:51:25;5.93;;;3.80;;
11473;SDS011;5793;52.238;13.438;2022-10-20T02:53:53;5.30;;;3.73;;
11473;SDS011;5793;52.238;13.438;2022-10-20T02:56:21;5.63;;;3.67;;
11473;SDS011;5793;52.238;13.438;2022-10-20T02:58:52;4.93;;;3.50;;
11473;SDS011;5793;52.238;13.438;2022-10-20T03:01:21;4.83;;;3.50;;
11473;SDS011;5793;52.238;13.438;2022-10-20T03:03:50;6.90;;;4.00;;
11473;SDS011;5793;52.238;13.438;2022-10-20T03:06:20;4.33;;;3.67;;
11473;SDS011;5793;52.238;13.438;2022-10-20T03:08:48;5.57;;;3.80;;
11473;SDS011;5793;52.238;13.438;2022-10-20T03:11:16;6.70;;;3.73;;
11473;SDS011;5793;52.238;13.438;2022-10-20T03:13:43;4.07;;;3.63;;
11473;SDS011;5793;52.238;13.438;2022-10-20T03:16:11;4.97;;;3.80;;
11473;SDS011;5793;52.238;13.438;2022-10-20T03:18:40;5.93;;;3.77;;
11473;SDS011;5793;52.238;13.438;2022-10-20T03:21:08;3.83;;;3.43;;
11473;SDS011;5793;52.238;13.438;2022-10-20T03:23:36;6.07;;;3.90;;
11473;SDS011;5793;52.238;13.438;2022-10-20T03:26:04;6.47;;;3.50;;
11473;SDS011;5793;52.238;13.438;2022-10-20T03:28:33;3.97;;;3.50;;
11473;SDS011;5793;52.238;13.438;2022-10-20T03:31:00;4.67;;;4.00;;
11473;SDS011;5793;52.238;13.438;2022-10-20T03:33:28;5.97;;;4.10;;
11473;SDS011;5793;52.238;13.438;2022-10-20T03:35:58;8.03;;;4.30;;
11473;SDS011;5793;52.238;13.438;2022-10-20T03:38:25;5.33;;;4.13;;
11473;SDS011;5793;52.238;13.438;2022-10-20T03:40:53;6.43;;;3.93;;
11473;SDS011;5793;52.238;13.438;2022-10-20T03:43:21;5.73;;;4.20;;
11473;SDS011;5793;52.238;13.438;2022-10-20T03:45:49;6.67;;;4.13;;
11473;SDS011;5793;52.238;13.438;2022-10-20T03:48:17;7.77;;;4.57;;
11473;SDS011;5793;52.238;13.438;2022-10-20T03:50:44;6.00;;;4.10;;
11473;SDS011;5793;52.238;13.438;2022-10-20T03:53:13;7.27;;;4.00;;
11473;SDS011;5793;52.238;13.438;2022-10-20T03:55:41;5.50;;;4.10;;
11473;SDS011;5793;52.238;13.438;2022-10-20T03:58:09;5.73;;;4.03;;
11473;SDS011;5793;52.238;13.438;2022-10-20T04:00:37;5.47;;;4.47;;
11473;SDS011;5793;52.238;13.438;2022-10-20T04:03:04;8.67;;;4.20;;
11473;SDS011;5793;52.238;13.438;2022-10-20T04:05:32;6.10;;;4.33;;
11473;SDS011;5793;52.238;13.438;2022-10-20T04:08:00;5.47;;;4.23;;
11473;SDS011;5793;52.238;13.438;2022-10-20T04:10:30;5.83;;;4.20;;
11473;SDS011;5793;52.238;13.438;2022-10-20T04:12:58;7.27;;;4.57;;
11473;SDS011;5793;52.238;13.438;2022-10-20T04:15:27;6.43;;;4.37;;
11473;SDS011;5793;52.238;13.438;2022-10-20T04:17:54;6.37;;;4.63;;
11473;SDS011;5793;52.238;13.438;2022-10-20T04:20:22;5.37;;;4.10;;
11473;SDS011;5793;52.238;13.438;2022-10-20T04:22:50;6.20;;;4.30;;
11473;SDS011;5793;52.238;13.438;2022-10-20T04:25:18;7.00;;;4.57;;
11473;SDS011;5793;52.238;13.438;2022-10-20T04:27:47;5.77;;;4.60;;
11473;SDS011;5793;52.238;13.438;2022-10-20T04:30:14;5.93;;;4.43;;
11473;SDS011;5793;52.238;13.438;2022-10-20T04:32:42;8.23;;;5.40;;
11473;SDS011;5793;52.238;13.438;2022-10-20T04:35:10;10.57;;;5.20;;
11473;SDS011;5793;52.238;13.438;2022-10-20T04:37:37;7.40;;;4.60;;
11473;SDS011;5793;52.238;13.438;2022-10-20T04:40:06;7.77;;;4.67;;
11473;SDS011;5793;52.238;13.438;2022-10-20T04:42:34;7.77;;;4.40;;
11473;SDS011;5793;52.238;13.438;2022-10-20T04:45:03;6.20;;;4.63;;
11473;SDS011;5793;52.238;13.438;2022-10-20T04:47:31;10.53;;;5.57;;
11473;SDS011;5793;52.238;13.438;2022-10-20T04:50:00;8.77;;;4.70;;
11473;SDS011;5793;52.238;13.438;2022-10-20T04:52:28;8.17;;;5.20;;
11473;SDS011;5793;52.238;13.438;2022-10-20T04:54:55;8.00;;;5.20;;
11473;SDS011;5793;52.238;13.438;2022-10-20T04:57:23;7.63;;;5.17;;
11473;SDS011;5793;52.238;13.438;2022-10-20T04:59:52;8.63;;;6.40;;
11473;SDS011;5793;52.238;13.438;2022-10-20T05:02:21;7.43;;;5.80;;
11473;SDS011;5793;52.238;13.438;2022-10-20T05:04:49;8.70;;;5.43;;
11473;SDS011;5793;52.238;13.438;2022-10-20T05:07:17;8.00;;;5.80;;
11473;SDS011;5793;52.238;13.438;2022-10-20T05:09:45;12.00;;;7.00;;
11473;SDS011;5793;52.238;13.438;2022-10-20T05:12:14;9.00;;;5.80;;
11473;SDS011;5793;52.238;13.438;2022-10-20T05:14:41;10.13;;;5.37;;
11473;SDS011;5793;52.238;13.438;2022-10-20T05:17:09;7.43;;;5.57;;
11473;SDS011;5793;52.238;13.438;2022-10-20T05:19:38;7.57;;;5.63;;
11473;SDS011;5793;52.238;13.438;2022-10-20T05:22:06;8.10;;;5.40;;
11473;SDS011;5793;52.238;13.438;2022-10-20T05:24:33;7.57;;;5.30;;
11473;SDS011;5793;52.238;13.438;2022-10-20T05:27:01;8.10;;;5.40;;
11473;SDS011;5793;52.238;13.438;2022-10-20T05:29:29;11.03;;;6.47;;
11473;SDS011;5793;52.238;13.438;2022-10-20T05:31:57;9.63;;;5.47;;
11473;SDS011;5793;52.238;13.438;2022-10-20T05:34:25;8.40;;;5.77;;
11473;SDS011;5793;52.238;13.438;2022-10-20T05:36:54;9.50;;;5.97;;
11473;SDS011;5793;52.238;13.438;2022-10-20T05:39:22;8.63;;;5.67;;
11473;SDS011;5793;52.238;13.438;2022-10-20T05:41:49;8.60;;;5.83;;
11473;SDS011;5793;52.238;13.438;2022-10-20T05:44:17;8.03;;;6.07;;
11473;SDS011;5793;52.238;13.438;2022-10-20T05:46:45;10.13;;;6.07;;
11473;SDS011;5793;52.238;13.438;2022-10-20T05:49:13;8.13;;;6.57;;
11473;SDS011;5793;52.238;13.438;2022-10-20T05:51:43;8.90;;;6.57;;
11473;SDS011;5793;52.238;13.438;2022-10-20T05:54:13;13.87;;;7.20;;
11473;SDS011;5793;52.238;13.438;2022-10-20T05:56:41;9.43;;;7.00;;
11473;SDS011;5793;52.238;13.438;2022-10-20T05:59:09;8.90;;;6.83;;
11473;SDS011;5793;52.238;13.438;2022-10-20T06:01:37;11.87;;;7.93;;
11473;SDS011;5793;52.238;13.438;2022-10-20T06:04:14;10.70;;;7.20;;
11473;SDS011;5793;52.238;13.438;2022-10-20T06:06:43;14.83;;;8.60;;
11473;SDS011;5793;52.238;13.438;2022-10-20T06:09:11;17.13;;;10.50;;
11473;SDS011;5793;52.238;13.438;2022-10-20T06:11:40;16.30;;;9.07;;
11473;SDS011;5793;52.238;13.438;2022-10-20T06:14:08;17.73;;;10.73;;
11473;SDS011;5793;52.238;13.438;2022-10-20T06:16:36;11.73;;;8.80;;
11473;SDS011;5793;52.238;13.438;2022-10-20T06:19:04;14.90;;;10.70;;
11473;SDS011;5793;52.238;13.438;2022-10-20T06:21:33;13.70;;;10.07;;
11473;SDS011;5793;52.238;13.438;2022-10-20T06:24:03;19.53;;;13.10;;
11473;SDS011;5793;52.238;13.438;2022-10-20T06:26:33;16.73;;;12.33;;
11473;SDS011;5793;52.238;13.438;2022-10-20T06:29:02;16.13;;;12.43;;
11473;SDS011;5793;52.238;13.438;2022-10-20T06:31:32;15.83;;;12.57;;
11473;SDS011;5793;52.238;13.438;2022-10-20T06:34:02;19.27;;;14.37;;
11473;SDS011;5793;52.238;13.438;2022-10-20T06:36:32;18.63;;;14.80;;
11473;SDS011;5793;52.238;13.438;2022-10-20T06:39:01;19.10;;;15.27;;
11473;SDS011;5793;52.238;13.438;2022-10-20T06:41:30;17.80;;;13.33;;
11473;SDS011;5793;52.238;13.438;2022-10-20T06:44:00;18.37;;;12.47;;
11473;SDS011;5793;52.238;13.438;2022-10-20T06:46:29;17.30;;;12.70;;
11473;SDS011;5793;52.238;13.438;2022-10-20T06:48:58;21.73;;;14.77;;
11473;SDS011;5793;52.238;13.438;2022-10-20T06:51:26;17.03;;;13.23;;
11473;SDS011;5793;52.238;13.438;2022-10-20T06:53:53;17.53;;;10.40;;
11473;SDS011;5793;52.238;13.438;2022-10-20T06:56:22;17.83;;;11.17;;
11473;SDS011;5793;52.238;13.438;2022-10-20T06:58:53;16.03;;;11.60;;
11473;SDS011;5793;52.238;13.438;2022-10-20T07:01:23;20.17;;;12.13;;
11473;SDS011;5793;52.238;13.438;2022-10-20T07:03:53;18.23;;;11.80;;
11473;SDS011;5793;52.238;13.438;2022-10-20T07:06:22;16.43;;;11.50;;
11473;SDS011;5793;52.238;13.438;2022-10-20T07:08:52;15.57;;;9.90;;
11473;SDS011;5793;52.238;13.438;2022-10-20T07:11:22;12.83;;;9.20;;
11473;SDS011;5793;52.238;13.438;2022-10-20T07:13:51;12.67;;;8.83;;
11473;SDS011;5793;52.238;13.438;2022-10-20T07:16:22;19.10;;;9.80;;
11473;SDS011;5793;52.238;13.438;2022-10-20T07:18:51;13.43;;;9.70;;
11473;SDS011;5793;52.238;13.438;2022-10-20T07:21:21;17.37;;;13.07;;
11473;SDS011;5793;52.238;13.438;2022-10-20T07:23:59;18.53;;;12.17;;
11473;SDS011;5793;52.238;13.438;2022-10-20T07:26:29;16.33;;;10.10;;
11473;SDS011;5793;52.238;13.438;2022-10-20T07:28:59;11.93;;;8.33;;
11473;SDS011;5793;52.238;13.438;2022-10-20T07:31:30;11.43;;;8.53;;
11473;SDS011;5793;52.238;13.438;2022-10-20T07:33:59;13.07;;;8.37;;
11473;SDS011;5793;52.238;13.438;2022-10-20T07:36:45;10.70;;;8.27;;
11473;SDS011;5793;52.238;13.438;2022-10-20T07:39:14;14.43;;;8.70;;
11473;SDS011;5793;52.238;13.438;2022-10-20T07:41:42;13.43;;;7.73;;
11473;SDS011;5793;52.238;13.438;2022-10-20T07:44:13;10.97;;;7.90;;
11473;SDS011;5793;52.238;13.438;2022-10-20T07:46:42;9.97;;;7.23;;
11473;SDS011;5793;52.238;13.438;2022-10-20T07:49:09;9.73;;;7.80;;
11473;SDS011;5793;52.238;13.438;2022-10-20T07:51:57;9.27;;;7.10;;
11473;SDS011;5793;52.238;13.438;2022-10-20T07:54:25;11.80;;;7.90;;
11473;SDS011;5793;52.238;13.438;2022-10-20T07:56:53;8.90;;;6.47;;
11473;SDS011;5793;52.238;13.438;2022-10-20T07:59:22;13.90;;;7.40;;
11473;SDS011;5793;52.238;13.438;2022-10-20T08:01:50;9.93;;;6.47;;
11473;SDS011;5793;52.238;13.438;2022-10-20T08:04:21;7.53;;;6.20;;
11473;SDS011;5793;52.238;13.438;2022-10-20T08:06:49;9.53;;;6.37;;
11473;SDS011;5793;52.238;13.438;2022-10-20T08:09:16;11.97;;;6.17;;
11473;SDS011;5793;52.238;13.438;2022-10-20T08:11:44;9.27;;;6.30;;
11473;SDS011;5793;52.238;13.438;2022-10-20T08:14:16;8.73;;;5.90;;
11473;SDS011;5793;52.238;13.438;2022-10-20T08:16:45;9.57;;;5.80;;
11473;SDS011;5793;52.238;13.438;2022-10-20T08:19:24;13.83;;;6.07;;
11473;SDS011;5793;52.238;13.438;2022-10-20T08:22:09;6.07;;;5.47;;
11473;SDS011;5793;52.238;13.438;2022-10-20T08:24:38;13.77;;;6.53;;
11473;SDS011;5793;52.238;13.438;2022-10-20T08:27:05;6.47;;;4.97;;
11473;SDS011;5793;52.238;13.438;2022-10-20T08:29:33;8.20;;;5.57;;
11473;SDS011;5793;52.238;13.438;2022-10-20T08:32:03;9.80;;;5.10;;
11473;SDS011;5793;52.238;13.438;2022-10-20T08:34:31;7.70;;;4.10;;
11473;SDS011;5793;52.238;13.438;2022-10-20T08:36:59;6.30;;;4.00;;
11473;SDS011;5793;52.238;13.438;2022-10-20T08:39:26;5.57;;;4.07;;
11473;SDS011;5793;52.238;13.438;2022-10-20T08:41:54;4.80;;;3.58;;
11473;SDS011;5793;52.238;13.438;2022-10-20T08:44:39;6.85;;;3.80;;
11473;SDS011;5793;52.238;13.438;2022-10-20T08:47:15;5.18;;;3.55;;
11473;SDS011;5793;52.238;13.438;2022-10-20T08:49:54;6.05;;;3.70;;
11473;SDS011;5793;52.238;13.438;2022-10-20T08:52:23;5.75;;;3.80;;
11473;SDS011;5793;52.238;13.438;2022-10-20T08:54:52;7.55;;;3.50;;
11473;SDS011;5793;52.238;13.438;2022-10-20T08:57:23;4.53;;;3.78;;
11473;SDS011;5793;52.238;13.438;2022-10-20T08:59:54;9.40;;;4.05;;
11473;SDS011;5793;52.238;13.438;2022-10-20T09:02:39;8.45;;;4.28;;
11473;SDS011;5793;52.238;13.438;2022-10-20T09:05:07;6.25;;;3.88;;
11473;SDS011;5793;52.238;13.438;2022-10-20T09:07:41;5.53;;;3.70;;
11473;SDS011;5793;52.238;13.438;2022-10-20T09:10:13;7.63;;;3.75;;
11473;SDS011;5793;52.238;13.438;2022-10-20T09:12:49;5.68;;;3.60;;
11473;SDS011;5793;52.238;13.438;2022-10-20T09:15:18;5.57;;;3.95;;
11473;SDS011;5793;52.238;13.438;2022-10-20T09:17:49;5.47;;;3.78;;
11473;SDS011;5793;52.238;13.438;2022-10-20T09:20:21;3.50;;;3.00;;
11473;SDS011;5793;52.238;13.438;2022-10-20T09:22:50;11.48;;;4.13;;
11473;SDS011;5793;52.238;13.438;2022-10-20T09:25:19;3.50;;;3.20;;
11473;SDS011;5793;52.238;13.438;2022-10-20T09:27:49;7.50;;;3.78;;
11473;SDS011;5793;52.238;13.438;2022-10-20T09:30:18;7.13;;;3.55;;
11473;SDS011;5793;52.238;13.438;2022-10-20T09:32:49;5.30;;;3.58;;
11473;SDS011;5793;52.238;13.438;2022-10-20T09:35:18;6.90;;;3.70;;
11473;SDS011;5793;52.238;13.438;2022-10-20T09:37:50;8.45;;;3.50;;
11473;SDS011;5793;52.238;13.438;2022-10-20T09:40:22;6.13;;;3.90;;
11473;SDS011;5793;52.238;13.438;2022-10-20T09:42:52;5.55;;;3.40;;
11473;SDS011;5793;52.238;13.438;2022-10-20T09:45:23;7.15;;;3.33;;
11473;SDS011;5793;52.238;13.438;2022-10-20T09:47:57;5.70;;;3.60;;
11473;SDS011;5793;52.238;13.438;2022-10-20T09:50:29;3.55;;;3.10;;
11473;SDS011;5793;52.238;13.438;2022-10-20T09:53:00;7.30;;;3.15;;
11473;SDS011;5793;52.238;13.438;2022-10-20T09:55:31;12.88;;;4.28;;
11473;SDS011;5793;52.238;13.438;2022-10-20T09:58:01;3.95;;;3.55;;
11473;SDS011;5793;52.238;13.438;2022-10-20T10:00:31;4.15;;;2.65;;
11473;SDS011;5793;52.238;13.438;2022-10-20T10:03:12;4.05;;;2.90;;
11473;SDS011;5793;52.238;13.438;2022-10-20T10:05:49;5.80;;;3.17;;
11473;SDS011;5793;52.238;13.438;2022-10-20T10:08:19;5.30;;;3.30;;
11473;SDS011;5793;52.238;13.438;2022-10-20T10:10:56;4.85;;;3.03;;
11473;SDS011;5793;52.238;13.438;2022-10-20T10:13:26;5.00;;;2.97;;
11473;SDS011;5793;52.238;13.438;2022-10-20T10:16:00;3.15;;;2.85;;
11473;SDS011;5793;52.238;13.438;2022-10-20T10:18:32;4.55;;;3.00;;
11473;SDS011;5793;52.238;13.438;2022-10-20T10:21:02;8.55;;;3.30;;
11473;SDS011;5793;52.238;13.438;2022-10-20T10:23:32;4.97;;;3.03;;
11473;SDS011;5793;52.238;13.438;2022-10-20T10:26:02;5.97;;;3.28;;
11473;SDS011;5793;52.238;13.438;2022-10-20T10:28:57;7.68;;;3.33;;
11473;SDS011;5793;52.238;13.438;2022-10-20T10:31:25;5.70;;;3.43;;
11473;SDS011;5793;52.238;13.438;2022-10-20T10:33:55;4.15;;;2.95;;
11473;SDS011;5793;52.238;13.438;2022-10-20T10:36:48;4.30;;;2.90;;
11473;SDS011;5793;52.238;13.438;2022-10-20T10:39:16;6.57;;;3.03;;
11473;SDS011;5793;52.238;13.438;2022-10-20T10:41:52;5.07;;;2.90;;
11473;SDS011;5793;52.238;13.438;2022-10-20T10:44:34;5.15;;;3.00;;
11473;SDS011;5793;52.238;13.438;2022-10-20T10:47:17;5.37;;;2.83;;
11473;SDS011;5793;52.238;13.438;2022-10-20T10:49:56;7.28;;;2.58;;
11473;SDS011;5793;52.238;13.438;2022-10-20T10:52:33;5.20;;;2.90;;
11473;SDS011;5793;52.238;13.438;2022-10-20T10:55:12;4.20;;;2.53;;
11473;SDS011;5793;52.238;13.438;2022-10-20T10:58:05;3.50;;;2.45;;
11473;SDS011;5793;52.238;13.438;2022-10-20T11:00:46;5.00;;;2.42;;
11473;SDS011;5793;52.238;13.438;2022-10-20T11:03:33;3.22;;;2.30;;
11473;SDS011;5793;52.238;13.438;2022-10-20T11:06:14;3.50;;;2.30;;
11473;SDS011;5793;52.238;13.438;2022-10-20T11:08:51;4.97;;;2.85;;
11473;SDS011;5793;52.238;13.438;2022-10-20T11:11:33;8.88;;;2.83;;
11473;SDS011;5793;52.238;13.438;2022-10-20T11:14:18;5.35;;;2.70;;
11473;SDS011;5793;52.238;13.438;2022-10-20T11:17:01;3.95;;;2.55;;
11473;SDS011;5793;52.238;13.438;2022-10-20T11:19:46;4.90;;;2.70;;
11473;SDS011;5793;52.238;13.438;2022-10-20T11:22:33;6.18;;;2.72;;
11473;SDS011;5793;52.238;13.438;2022-10-20T11:25:12;3.90;;;2.30;;
11473;SDS011;5793;52.238;13.438;2022-10-20T11:27:51;6.20;;;2.83;;
11473;SDS011;5793;52.238;13.438;2022-10-20T11:30:23;4.30;;;2.60;;
11473;SDS011;5793;52.238;13.438;2022-10-20T11:32:54;5.50;;;2.30;;
11473;SDS011;5793;52.238;13.438;2022-10-20T11:35:28;4.13;;;2.40;;
11473;SDS011;5793;52.238;13.438;2022-10-20T11:38:08;4.15;;;2.40;;
11473;SDS011;5793;52.238;13.438;2022-10-20T11:40:44;3.17;;;2.60;;
11473;SDS011;5793;52.238;13.438;2022-10-20T11:43:19;2.97;;;2.28;;
11473;SDS011;5793;52.238;13.438;2022-10-20T11:45:54;3.63;;;2.60;;
11473;SDS011;5793;52.238;13.438;2022-10-20T11:48:29;4.43;;;2.35;;
11473;SDS011;5793;52.238;13.438;2022-10-20T11:51:08;3.22;;;2.30;;
11473;SDS011;5793;52.238;13.438;2022-10-20T11:53:58;4.60;;;2.55;;
11473;SDS011;5793;52.238;13.438;2022-10-20T11:56:47;3.83;;;2.33;;
11473;SDS011;5793;52.238;13.438;2022-10-20T11:59:46;3.95;;;2.30;;
11473;SDS011;5793;52.238;13.438;2022-10-20T12:02:45;4.78;;;2.80;;
11473;SDS011;5793;52.238;13.438;2022-10-20T12:05:47;4.03;;;2.47;;
11473;SDS011;5793;52.238;13.438;2022-10-20T12:11:39;6.18;;;2.80;;
11473;SDS011;5793;52.238;13.438;2022-10-20T12:14:16;4.63;;;2.60;;
11473;SDS011;5793;52.238;13.438;2022-10-20T12:17:03;4.50;;;2.63;;
11473;SDS011;5793;52.238;13.438;2022-10-20T12:19:39;3.65;;;2.55;;
11473;SDS011;5793;52.238;13.438;2022-10-20T12:25:15;6.55;;;2.38;;
11473;SDS011;5793;52.238;13.438;2022-10-20T12:30:54;4.85;;;2.30;;
11473;SDS011;5793;52.238;13.438;2022-10-20T12:33:33;5.32;;;2.63;;
11473;SDS011;5793;52.238;13.438;2022-10-20T12:36:27;3.63;;;2.30;;
11473;SDS011;5793;52.238;13.438;2022-10-20T12:39:14;2.92;;;2.25;;
11473;SDS011;5793;52.238;13.438;2022-10-20T12:41:52;4.15;;;2.28;;
11473;SDS011;5793;52.238;13.438;2022-10-20T12:44:23;2.78;;;2.20;;
11473;SDS011;5793;52.238;13.438;2022-10-20T12:46:56;5.88;;;2.40;;
11473;SDS011;5793;52.238;13.438;2022-10-20T12:49:27;4.28;;;2.42;;
11473;SDS011;5793;52.238;13.438;2022-10-20T12:51:58;3.20;;;2.38;;
11473;SDS011;5793;52.238;13.438;2022-10-20T12:54:33;3.63;;;2.45;;
11473;SDS011;5793;52.238;13.438;2022-10-20T12:57:05;6.15;;;2.50;;
11473;SDS011;5793;52.238;13.438;2022-10-20T12:59:53;3.20;;;2.40;;
11473;SDS011;5793;52.238;13.438;2022-10-20T13:02:30;6.13;;;2.63;;
11473;SDS011;5793;52.238;13.438;2022-10-20T13:05:00;6.82;;;2.40;;
11473;SDS011;5793;52.238;13.438;2022-10-20T13:10:31;4.95;;;2.40;;
11473;SDS011;5793;52.238;13.438;2022-10-20T13:16:10;3.38;;;2.35;;
11473;SDS011;5793;52.238;13.438;2022-10-20T13:18:44;4.50;;;2.53;;
11473;SDS011;5793;52.238;13.438;2022-10-20T13:21:26;3.40;;;2.60;;
11473;SDS011;5793;52.238;13.438;2022-10-20T13:24:01;5.32;;;2.20;;
11473;SDS011;5793;52.238;13.438;2022-10-20T13:26:48;2.55;;;2.10;;
11473;SDS011;5793;52.238;13.438;2022-10-20T13:29:19;2.28;;;2.08;;
11473;SDS011;5793;52.238;13.438;2022-10-20T13:31:57;3.08;;;2.20;;
11473;SDS011;5793;52.238;13.438;2022-10-20T13:34:40;3.78;;;2.00;;
11473;SDS011;5793;52.238;13.438;2022-10-20T13:37:15;7.40;;;2.40;;
11473;SDS011;5793;52.238;13.438;2022-10-20T13:39:59;4.70;;;2.22;;
11473;SDS011;5793;52.238;13.438;2022-10-20T13:42:40;3.25;;;1.95;;
11473;SDS011;5793;52.238;13.438;2022-10-20T13:45:18;3.47;;;2.05;;
11473;SDS011;5793;52.238;13.438;2022-10-20T13:47:56;4.13;;;2.00;;
11473;SDS011;5793;52.238;13.438;2022-10-20T13:50:37;3.65;;;1.90;;
11473;SDS011;5793;52.238;13.438;2022-10-20T13:53:09;2.25;;;2.00;;
11473;SDS011;5793;52.238;13.438;2022-10-20T13:55:53;4.05;;;2.08;;
11473;SDS011;5793;52.238;13.438;2022-10-20T13:58:26;4.10;;;2.38;;
11473;SDS011;5793;52.238;13.438;2022-10-20T14:00:55;2.95;;;2.08;;
11473;SDS011;5793;52.238;13.438;2022-10-20T14:03:26;4.30;;;2.47;;
11473;SDS011;5793;52.238;13.438;2022-10-20T14:05:55;3.50;;;2.10;;
11473;SDS011;5793;52.238;13.438;2022-10-20T14:08:24;2.47;;;2.00;;
11473;SDS011;5793;52.238;13.438;2022-10-20T14:10:52;4.82;;;2.00;;
11473;SDS011;5793;52.238;13.438;2022-10-20T14:13:23;4.68;;;2.30;;
11473;SDS011;5793;52.238;13.438;2022-10-20T14:15:54;4.05;;;2.10;;
11473;SDS011;5793;52.238;13.438;2022-10-20T14:18:25;3.38;;;2.13;;
11473;SDS011;5793;52.238;13.438;2022-10-20T14:20:56;2.67;;;2.13;;
11473;SDS011;5793;52.238;13.438;2022-10-20T14:23:28;4.30;;;2.63;;
11473;SDS011;5793;52.238;13.438;2022-10-20T14:26:00;3.42;;;2.20;;
11473;SDS011;5793;52.238;13.438;2022-10-20T14:28:30;2.78;;;2.15;;
11473;SDS011;5793;52.238;13.438;2022-10-20T14:31:02;3.70;;;2.58;;
11473;SDS011;5793;52.238;13.438;2022-10-20T14:33:32;4.88;;;2.60;;
11473;SDS011;5793;52.238;13.438;2022-10-20T14:36:02;4.00;;;2.22;;
11473;SDS011;5793;52.238;13.438;2022-10-20T14:38:32;2.80;;;2.40;;
11473;SDS011;5793;52.238;13.438;2022-10-20T14:41:03;3.25;;;2.33;;
11473;SDS011;5793;52.238;13.438;2022-10-20T14:43:34;4.47;;;2.45;;
11473;SDS011;5793;52.238;13.438;2022-10-20T14:46:06;4.60;;;2.70;;
11473;SDS011;5793;52.238;13.438;2022-10-20T14:48:37;8.02;;;2.80;;
11473;SDS011;5793;52.238;13.438;2022-10-20T14:51:29;4.07;;;2.30;;
11473;SDS011;5793;52.238;13.438;2022-10-20T14:54:13;2.65;;;1.92;;
11473;SDS011;5793;52.238;13.438;2022-10-20T14:56:43;4.85;;;2.40;;
11473;SDS011;5793;52.238;13.438;2022-10-20T14:59:13;3.60;;;2.30;;
11473;SDS011;5793;52.238;13.438;2022-10-20T15:01:54;5.82;;;2.38;;
11473;SDS011;5793;52.238;13.438;2022-10-20T15:04:27;2.90;;;2.00;;
11473;SDS011;5793;52.238;13.438;2022-10-20T15:07:00;3.03;;;2.13;;
11473;SDS011;5793;52.238;13.438;2022-10-20T15:09:31;6.05;;;2.35;;
11473;SDS011;5793;52.238;13.438;2022-10-20T15:12:05;3.30;;;2.25;;
11473;SDS011;5793;52.238;13.438;2022-10-20T15:14:33;3.58;;;2.50;;
11473;SDS011;5793;52.238;13.438;2022-10-20T15:17:03;3.45;;;2.15;;
11473;SDS011;5793;52.238;13.438;2022-10-20T15:19:32;2.58;;;2.25;;
11473;SDS011;5793;52.238;13.438;2022-10-20T15:22:07;4.88;;;2.42;;
11473;SDS011;5793;52.238;13.438;2022-10-20T15:24:36;3.50;;;2.77;;
11473;SDS011;5793;52.238;13.438;2022-10-20T15:27:05;4.00;;;2.60;;
11473;SDS011;5793;52.238;13.438;2022-10-20T15:29:38;6.93;;;3.20;;
11473;SDS011;5793;52.238;13.438;2022-10-20T15:32:15;4.10;;;2.93;;